Temperatura - Umidità - Pioggia orarie dal 24-07-2021 al 01-08-2021

Intensità - Direzione vento orarie dal 24-07-2021 al 01-08-2021

Dati orari da stazione meteo dal 24-07-2021 al 01-08-2021

Nome Stazione Data Ora Temperatura [°C] Umidità [%] Pioggia [mm] Intensità vento[km/h] Direzione vento [°]
Savigliano 24-07-2021 02:00 22.4 82.5 0 0.4 148
Savigliano 24-07-2021 03:00 22.1 83.3 0 0 170
Savigliano 24-07-2021 04:00 20.9 87 0 0 183
Savigliano 24-07-2021 05:00 19.8 87.8 0 2.5 147
Savigliano 24-07-2021 06:00 19.4 87.5 0 0.7 164
Savigliano 24-07-2021 07:00 19.8 89.2 0 0.4 174
Savigliano 24-07-2021 08:00 20.5 86 0 1.1 168
Savigliano 24-07-2021 09:00 23.1 77.8 0 3.6 166
Savigliano 24-07-2021 10:00 24.6 72 0 11.5 185
Savigliano 24-07-2021 11:00 27.2 67.4 0 10.4 198
Savigliano 24-07-2021 12:00 27.3 67.4 0 4.3 128
Savigliano 24-07-2021 13:00 27.6 62.7 0 4 82
Savigliano 24-07-2021 14:00 28.3 61.3 0 1.8 119
Savigliano 24-07-2021 15:00 29.4 55.7 0 0 109
Savigliano 24-07-2021 16:00 30.1 53.9 0 1.1 92
Savigliano 24-07-2021 17:00 30.1 53.9 0 0 88
Savigliano 24-07-2021 18:00 30.2 54 0 1.1 66
Savigliano 24-07-2021 19:00 28.9 61 0 0.4 168
Savigliano 24-07-2021 20:00 27.5 63.3 0 0 192
Savigliano 24-07-2021 21:00 25 69.4 0 0.4 274
Savigliano 24-07-2021 22:00 24.1 75.9 0 0.4 274
Savigliano 24-07-2021 23:00 22.3 77.1 0 7.9 294
Savigliano 25-07-2021 00:00 22.4 82.7 0 0.4 302
Savigliano 25-07-2021 01:00 22 82.7 0 4.3 273
Savigliano 25-07-2021 02:00 21.1 82.1 0 2.9 216
Savigliano 25-07-2021 03:00 20.7 82.5 0 1.8 185
Savigliano 25-07-2021 04:00 21.6 82.7 0 1.8 201
Savigliano 25-07-2021 05:00 20.3 82.4 0 1.8 184
Savigliano 25-07-2021 06:00 19.8 86.7 0 0 181
Savigliano 25-07-2021 07:00 19.6 88.6 0 2.2 206
Savigliano 25-07-2021 08:00 19.5 87.7 0 3.2 276
Savigliano 25-07-2021 09:00 21 82.6 0 2.9 214
Savigliano 25-07-2021 10:00 22.7 80.1 0 4 271
Savigliano 25-07-2021 11:00 25.5 69.2 0 4 184
Savigliano 25-07-2021 12:00 26.6 65.2 0 2.9 161
Savigliano 25-07-2021 13:00 27 63.3 0 1.1 167
Savigliano 25-07-2021 14:00 27.4 61.2 0 11.5 74
Savigliano 25-07-2021 15:00 28.5 58.7 0 5.4 115
Savigliano 25-07-2021 16:00 29.5 57 0 19.8 104
Savigliano 25-07-2021 17:00 27.8 55.2 0 4.7 95
Savigliano 25-07-2021 18:00 27.7 55.5 0 12.2 68
Savigliano 25-07-2021 19:00 27.5 60.5 0 6.8 69
Savigliano 25-07-2021 20:00 26.8 64.8 0 8.3 74
Savigliano 25-07-2021 21:00 25 68.9 0 6.8 88
Savigliano 25-07-2021 22:00 24.6 72.7 0 1.4 76
Savigliano 25-07-2021 23:00 22.5 79.1 0 12.2 64
Savigliano 26-07-2021 00:00 21.3 78.8 0 13.7 202
Savigliano 26-07-2021 01:00 19.7 81.8 0 5 275
Savigliano 26-07-2021 02:00 20 86.5 0 3.2 289
Savigliano 26-07-2021 03:00 20 87 0 0.4 288
Savigliano 26-07-2021 04:00 19.4 82.4 0 0 287
Savigliano 26-07-2021 05:00 19.5 84.9 0 0 296
Savigliano 26-07-2021 06:00 20.4 86.7 0 0 296
Savigliano 26-07-2021 07:00 20.2 87.6 0 0.4 296
Savigliano 26-07-2021 08:00 19.7 87.1 0 0.4 295
Savigliano 26-07-2021 09:00 20.6 82.3 0 0.4 171
Savigliano 26-07-2021 10:00 22.4 77.3 0 8.3 66
Savigliano 26-07-2021 11:00 22.9 73.9 0 2.2 147
Savigliano 26-07-2021 12:00 23.7 69.1 0 10.4 78
Savigliano 26-07-2021 13:00 24.9 65 0 11.9 124
Savigliano 26-07-2021 14:00 24.7 63.6 0 13.7 121
Savigliano 26-07-2021 15:00 25.2 61.5 0 8.3 139
Savigliano 26-07-2021 16:00 26.7 61.3 0 11.2 251
Savigliano 26-07-2021 17:00 26.3 62.6 0 4.7 137
Savigliano 26-07-2021 18:00 25.8 63.8 0 11.2 211
Savigliano 26-07-2021 19:00 25.1 62.1 0 5 46
Savigliano 26-07-2021 20:00 24.9 66.9 0 1.4 164
Savigliano 26-07-2021 21:00 24.6 68.7 0 2.2 223
Savigliano 26-07-2021 22:00 23.4 68.3 0 0.7 90
Savigliano 26-07-2021 23:00 22.3 72.7 0 2.5 283
Savigliano 27-07-2021 00:00 22.6 78.4 0 8.6 252
Savigliano 27-07-2021 01:00 21.7 81.9 0 5 200
Savigliano 27-07-2021 02:00 20 84.4 0 0 271
Savigliano 27-07-2021 03:00 19.6 81.9 0 2.9 295
Savigliano 27-07-2021 04:00 19.9 81.9 0 0.4 301
Savigliano 27-07-2021 05:00 20.1 82.9 0 0 292
Savigliano 27-07-2021 06:00 19.6 81.7 0 1.1 295
Savigliano 27-07-2021 07:00 20 83.1 0 0.7 297
Savigliano 27-07-2021 08:00 20.1 88.2 0 1.1 287
Savigliano 27-07-2021 09:00 19.9 85.5 0 4 264
Savigliano 27-07-2021 10:00 21.6 81.7 0 4 109
Savigliano 27-07-2021 11:00 23.4 75.1 0 2.9 195
Savigliano 27-07-2021 12:00 24.9 69 0 6.8 136
Savigliano 27-07-2021 13:00 25 65.8 0 13 110
Savigliano 27-07-2021 14:00 26.5 62.4 0 11.5 137
Savigliano 27-07-2021 15:00 27.4 62.4 0 14.4 123
Savigliano 27-07-2021 16:00 26.5 62 0 7.2 76
Savigliano 27-07-2021 17:00 26.8 61.2 0 10.1 127
Savigliano 27-07-2021 18:00 23.7 71.3 0 4.7 108
Savigliano 27-07-2021 19:00 22.3 75.5 0 2.5 90
Savigliano 27-07-2021 20:00 22.3 75 0 1.1 297
Savigliano 27-07-2021 21:00 21.3 80.1 0 1.8 277
Savigliano 27-07-2021 22:00 20.4 81.3 0 2.2 253
Savigliano 27-07-2021 23:00 20.8 82.4 0 0.4 255
Savigliano 28-07-2021 00:00 19.7 86.2 0 1.4 187
Savigliano 28-07-2021 01:00 19.6 86.9 0 0 188
Savigliano 28-07-2021 02:00 19.8 88 0 0.7 184
Savigliano 28-07-2021 03:00 19.7 87.6 0 0 170
Savigliano 28-07-2021 04:00 20.1 89 0 0.4 179
Savigliano 28-07-2021 05:00 19.3 88.7 0 1.1 247
Savigliano 28-07-2021 06:00 20.3 87.8 0 0.4 279
Savigliano 28-07-2021 07:00 20.3 88.6 0 0.7 244
Savigliano 28-07-2021 08:00 19.9 88 0 0.7 173
Savigliano 28-07-2021 09:00 20.4 88.1 0 0 254
Savigliano 28-07-2021 10:00 22.3 83.7 0 0.7 256
Savigliano 28-07-2021 11:00 22.4 82.7 0 0.7 119
Savigliano 28-07-2021 12:00 22.2 82.6 0 3.6 158
Savigliano 28-07-2021 13:00 23.4 76.2 0 6.5 118
Savigliano 28-07-2021 14:00 25.4 65.6 0 6.5 191
Savigliano 28-07-2021 15:00 26.2 67.4 0 6.8 115
Savigliano 28-07-2021 16:00 27.3 59.4 0 14 132
Savigliano 28-07-2021 17:00 27.7 57.8 0 7.2 127
Savigliano 28-07-2021 18:00 28.2 59.2 0 14.8 220
Savigliano 28-07-2021 19:00 27.7 61.6 0 5.8 176
Savigliano 28-07-2021 20:00 27.1 63.2 0 4 265
Savigliano 28-07-2021 21:00 24.9 69.9 0 13 293
Savigliano 28-07-2021 22:00 22.6 79.9 0 2.5 326
Savigliano 28-07-2021 23:00 22.4 82.5 0 1.8 300
Savigliano 29-07-2021 00:00 22.1 86.8 0 1.4 297
Savigliano 29-07-2021 01:00 20.7 88.7 0 1.8 292
Savigliano 29-07-2021 02:00 19.9 88.5 0 0 296
Savigliano 29-07-2021 03:00 19.6 87.5 0 0 296
Savigliano 29-07-2021 04:00 19.6 88.3 0 1.1 292
Savigliano 29-07-2021 05:00 20.3 89.5 0 0.4 292
Savigliano 29-07-2021 06:00 19.9 88.8 0 1.1 274
Savigliano 29-07-2021 07:00 19.7 87.6 0 0 270
Savigliano 29-07-2021 08:00 19.7 81.6 0 0 283
Savigliano 29-07-2021 09:00 21.1 79.5 0 0 285
Savigliano 29-07-2021 10:00 22.8 74.8 0 0.7 201
Savigliano 29-07-2021 11:00 25 68.2 0 1.4 140
Savigliano 29-07-2021 12:00 26.4 61.9 0 1.1 110
Savigliano 29-07-2021 13:00 27.1 62.4 0 13 83
Savigliano 29-07-2021 14:00 27.8 57.4 0 15.5 101
Savigliano 29-07-2021 15:00 28.9 49.3 0 15.5 142
Savigliano 29-07-2021 16:00 29.5 45.6 0 7.9 103
Savigliano 29-07-2021 17:00 30 46.2 0 11.9 156
Savigliano 29-07-2021 18:00 29.8 45.7 0 2.2 199
Savigliano 29-07-2021 19:00 29.5 46 0 5 243
Savigliano 29-07-2021 20:00 27.5 52 0 7.9 265
Savigliano 29-07-2021 21:00 26.7 55.9 0 1.1 284
Savigliano 29-07-2021 22:00 25.1 61.8 0 0 146
Savigliano 29-07-2021 23:00 25.2 61.6 0 1.8 111
Savigliano 30-07-2021 00:00 24.9 68 0 4.3 266
Savigliano 30-07-2021 01:00 22.3 74.2 0 0.4 208
Savigliano 30-07-2021 02:00 22.3 79.4 0 3.2 199
Savigliano 30-07-2021 03:00 20.4 82.3 0 4.7 195
Savigliano 30-07-2021 04:00 20.3 82 0 1.1 223
Savigliano 30-07-2021 05:00 21.1 81.5 0 1.4 234
Savigliano 30-07-2021 06:00 20.1 87 0 0.4 168
Savigliano 30-07-2021 07:00 19.9 88.3 0 0.7 190
Savigliano 30-07-2021 08:00 21.2 80 0 1.1 245
Savigliano 30-07-2021 09:00 21.8 79.9 0 2.9 217
Savigliano 30-07-2021 10:00 19.8 86.2 0.4 5 188
Savigliano 30-07-2021 11:00 19.6 88.4 0 4.7 173
Savigliano 30-07-2021 12:00 20.7 82.2 0 5 176
Savigliano 30-07-2021 13:00 26 63.4 0 9.7 162
Savigliano 30-07-2021 14:00 27.8 56.5 0 5.4 152
Savigliano 30-07-2021 15:00 28.3 50.3 0 6.5 115
Savigliano 30-07-2021 16:00 30.1 46.1 0 1.8 131
Savigliano 30-07-2021 17:00 30 51.2 0 2.5 90
Savigliano 30-07-2021 18:00 28.3 60.3 0 8.6 81
Savigliano 30-07-2021 19:00 27.6 62 0 8.6 91
Savigliano 30-07-2021 20:00 27.7 61.9 0 7.9 204
Savigliano 30-07-2021 21:00 25.8 68.5 0 5 286
Savigliano 30-07-2021 22:00 23.6 75.9 0 3.2 293
Savigliano 30-07-2021 23:00 22.3 80.4 0 0 299
Savigliano 31-07-2021 00:00 22.5 82.3 0 6.1 266
Savigliano 31-07-2021 01:00 22.4 82.3 0 5.4 291
Savigliano 31-07-2021 02:00 21.9 82.1 0 2.9 237
Savigliano 31-07-2021 03:00 19.9 85.7 0 6.8 164
Savigliano 31-07-2021 04:00 20 87.5 0 4 167
Savigliano 31-07-2021 05:00 19.6 88.3 0 1.4 89
Savigliano 31-07-2021 06:00 19.8 87.1 0 1.8 258
Savigliano 31-07-2021 07:00 17.6 88.3 0 1.8 239
Savigliano 31-07-2021 08:00 19.5 84.9 0 0.4 245
Savigliano 31-07-2021 09:00 22.1 74.3 0 4 291
Savigliano 31-07-2021 10:00 24.4 71.1 0 2.9 248
Savigliano 31-07-2021 11:00 24.6 70.6 0 6.5 164
Savigliano 31-07-2021 12:00 25.5 70.4 0 10.8 221
Savigliano 31-07-2021 13:00 26 68.5 0 4.3 224
Savigliano 31-07-2021 14:00 25.8 68.7 0 2.2 203
Savigliano 31-07-2021 15:00 20.3 81.6 0 4 130
Savigliano 28-07-2021 08:25 0 0 0.1 0 0
Savigliano 30-07-2021 10:05 0 0 0.1 0 0
Savigliano 30-07-2021 10:35 0 0 0.7 0 0
Savigliano 30-07-2021 10:40 0 0 0.2 0 0
Savigliano 30-07-2021 10:45 0 0 0.1 0 0
Savigliano 30-07-2021 10:50 0 0 0.1 0 0
Savigliano 31-07-2021 14:05 0 0 1.8 0 0
Savigliano 31-07-2021 14:10 0 0 3.7 0 0
Savigliano 31-07-2021 14:15 0 0 3.4 0 0
Savigliano 31-07-2021 14:20 0 0 1.9 0 0
Savigliano 31-07-2021 14:25 0 0 0.2 0 0
Savigliano 31-07-2021 15:20 0 0 0.6 0 0
Savigliano 24-07-2021 17:20 0 0 0 0 122
Savigliano 25-07-2021 01:40 0 0 0 0 238
Savigliano 25-07-2021 17:20 0 0 0 0 145
Savigliano 26-07-2021 01:40 0 0 0 0 130
Savigliano 26-07-2021 17:20 0 0 0 0 139
Savigliano 27-07-2021 01:40 0 0 0 0 185
Savigliano 27-07-2021 17:20 0 0 0 0 124
Savigliano 28-07-2021 01:40 0 0 0 0 206
Savigliano 28-07-2021 17:20 0 0 0 0 153
Savigliano 29-07-2021 01:40 0 0 0 0 278
Savigliano 29-07-2021 17:20 0 0 0 0 129
Savigliano 30-07-2021 01:40 0 0 0 0 218
Savigliano 30-07-2021 17:20 0 0 0 0 145
Savigliano 31-07-2021 01:40 0 0 0 0 237
Savigliano 31-07-2021 16:00 0 0 0 0 116

Riassuntivo giornaliero del 31-07-2021